Terminal Aerodrome Forecast
Issued by NWS Grand Forks, ND

Home | Current Version | Previous Version | Graphics & Text | Print | Product List | Glossary On
Versions: 1 2 3 4 5 6 7 8 9 10 11 12 13
043
FTUS43 KFGF 182320
TAFGFK
TAF
KGFK 182320Z 1900/1924 27016KT P6SM FEW250
     FM190300 25009KT P6SM SKC
     FM190900 23005KT P6SM SKC
     FM191400 17009KT P6SM FEW250
     FM192000 19013KT P6SM FEW250=

USA.gov is the U.S. government's official web portal to all federal, state and local government web resources and services.